Time;durP1;ratioP1;P1;durP2;ratioP2;P2;SDS_P1;SDS_P2;PMS_P1;PMS_P2;Temp;Humidity;BMP_temperature;BMP_pressure;BME280_temperature;BME280_humidity;BME280_pressure;Samples;Min_cycle;Max_cycle;Signal;HPM_P1;HPM_P2
2021/12/27 00:01:55;;;;;;;10.70;7.97;;;6.90;96.30;;;;;;5052641;28;20224;-55
2021/12/27 00:04:22;;;;;;;10.82;8.73;;;7.00;96.30;;;;;;5052342;28;20652;-54
2021/12/27 00:06:49;;;;;;;14.50;9.77;;;7.00;96.30;;;;;;5052619;28;20212;-53
2021/12/27 00:09:15;;;;;;;10.82;9.00;;;7.00;96.10;;;;;;5054587;28;20316;-55
2021/12/27 00:11:44;;;;;;;12.15;8.40;;;7.00;96.10;;;;;;5056266;28;20676;-54
2021/12/27 00:14:10;;;;;;;12.07;9.77;;;7.00;96.10;;;;;;5056140;28;20205;-55
2021/12/27 00:16:37;;;;;;;12.98;9.05;;;7.00;96.00;;;;;;5056232;28;20215;-54
2021/12/27 00:19:04;;;;;;;12.27;9.15;;;7.00;96.30;;;;;;5056280;28;20213;-54
2021/12/27 00:21:31;;;;;;;13.30;9.43;;;7.00;96.30;;;;;;5056111;28;20201;-54
2021/12/27 00:23:58;;;;;;;15.32;9.98;;;7.00;96.30;;;;;;5054884;28;20674;-54
2021/12/27 00:26:25;;;;;;;17.90;10.55;;;6.90;96.30;;;;;;5055917;28;20794;-54
2021/12/27 00:28:53;;;;;;;14.10;8.70;;;6.80;96.30;;;;;;5055863;28;20735;-54
2021/12/27 00:31:20;;;;;;;14.65;9.65;;;6.90;96.30;;;;;;5056006;28;20652;-55
2021/12/27 00:33:47;;;;;;;13.43;9.45;;;6.90;96.30;;;;;;5055988;28;20560;-54
2021/12/27 00:36:14;;;;;;;13.30;9.50;;;6.80;96.30;;;;;;5055828;28;20695;-54
2021/12/27 00:38:41;;;;;;;13.95;9.77;;;6.90;96.30;;;;;;5055703;28;20213;-55
2021/12/27 00:41:07;;;;;;;16.80;9.50;;;6.90;96.30;;;;;;5054803;28;20208;-54
2021/12/27 00:43:34;;;;;;;15.65;10.63;;;6.90;96.30;;;;;;5055751;28;20208;-54
2021/12/27 00:46:03;;;;;;;13.65;8.40;;;6.90;96.10;;;;;;5055638;28;20233;-55
2021/12/27 00:48:30;;;;;;;13.50;9.35;;;6.80;95.90;;;;;;5055716;28;20232;-55
2021/12/27 00:50:56;;;;;;;14.10;9.25;;;6.80;96.20;;;;;;5055548;28;20206;-55
2021/12/27 00:53:23;;;;;;;14.55;9.77;;;6.80;96.10;;;;;;5055677;28;20206;-53
2021/12/27 00:55:50;;;;;;;13.95;10.25;;;6.80;96.20;;;;;;5054087;28;20383;-58
2021/12/27 00:58:17;;;;;;;13.93;10.07;;;6.70;96.30;;;;;;5055493;28;20206;-54
2021/12/27 01:00:44;;;;;;;15.57;10.73;;;6.80;96.30;;;;;;5055483;28;20210;-54
2021/12/27 01:03:12;;;;;;;18.38;11.45;;;6.80;96.30;;;;;;5055265;28;20213;-54
2021/12/27 01:05:39;;;;;;;13.60;9.48;;;6.80;96.10;;;;;;5055313;28;20687;-54
2021/12/27 01:08:06;;;;;;;16.13;10.25;;;6.90;96.00;;;;;;5055293;28;20565;-55
2021/12/27 01:13:25;;;;;;;16.55;11.35;;;6.90;96.00;;;;;;5054858;28;20197;-55
2021/12/27 01:16:10;;;;;;;16.35;9.50;;;6.90;95.80;;;;;;5055170;28;20197;-55
2021/12/27 01:18:41;;;;;;;17.17;11.05;;;6.90;95.80;;;;;;5054821;28;20201;-58
2021/12/27 01:21:08;;;;;;;15.48;10.65;;;6.90;95.80;;;;;;5054612;28;20212;-57
2021/12/27 01:23:35;;;;;;;15.43;10.50;;;6.80;95.70;;;;;;5055067;28;20201;-56
2021/12/27 01:26:02;;;;;;;17.00;12.10;;;6.80;95.70;;;;;;5053515;28;20229;-53
2021/12/27 01:28:29;;;;;;;20.25;11.85;;;6.80;95.80;;;;;;5054941;28;20296;-58
2021/12/27 01:30:56;;;;;;;19.08;11.80;;;6.90;95.70;;;;;;5054984;28;20213;-58
2021/12/27 01:33:24;;;;;;;19.33;10.95;;;6.90;95.60;;;;;;5054719;28;20275;-55
2021/12/27 01:35:54;;;;;;;18.13;11.50;;;7.00;95.40;;;;;;5054855;28;20602;-55
2021/12/27 01:38:21;;;;;;;17.30;11.18;;;7.00;95.30;;;;;;5054745;28;20292;-57
2021/12/27 01:40:51;;;;;;;20.23;13.10;;;7.00;94.90;;;;;;5053326;28;20635;-54
2021/12/27 01:43:21;;;;;;;22.63;12.18;;;7.10;94.70;;;;;;5054676;28;20652;-54
2021/12/27 01:45:50;;;;;;;19.42;12.70;;;7.10;94.50;;;;;;5054531;28;20225;-54
2021/12/27 01:48:21;;;;;;;17.95;10.98;;;7.00;94.50;;;;;;5054604;28;20308;-57
2021/12/27 01:50:50;;;;;;;17.73;12.05;;;7.00;94.40;;;;;;5054506;28;20205;-53
2021/12/27 01:53:20;;;;;;;16.48;11.05;;;7.00;94.60;;;;;;5054457;28;20201;-56
2021/12/27 01:55:47;;;;;;;14.95;9.77;;;6.90;94.60;;;;;;5052975;28;20205;-54
2021/12/27 01:58:14;;;;;;;13.57;9.60;;;6.90;94.60;;;;;;5054425;28;20216;-54
2021/12/27 02:00:45;;;;;;;16.42;10.52;;;6.80;94.60;;;;;;5054387;28;20206;-53
2021/12/27 02:03:14;;;;;;;12.50;8.57;;;6.80;94.70;;;;;;5054255;28;20316;-56
2021/12/27 02:05:41;;;;;;;17.73;10.40;;;6.80;94.70;;;;;;5054128;28;20333;-56
2021/12/27 02:08:08;;;;;;;15.13;10.23;;;6.80;94.80;;;;;;5054090;28;20682;-56
2021/12/27 02:10:36;;;;;;;13.30;9.63;;;6.80;94.60;;;;;;5052731;28;20229;-53
2021/12/27 02:13:03;;;;;;;16.42;10.00;;;6.80;94.60;;;;;;5053966;28;20201;-53
2021/12/27 02:15:30;;;;;;;12.00;8.40;;;6.80;94.50;;;;;;5053985;28;20206;-56
2021/12/27 02:17:57;;;;;;;14.43;9.55;;;6.80;94.30;;;;;;5053921;28;20201;-58
2021/12/27 02:20:29;;;;;;;13.40;8.57;;;6.80;94.50;;;;;;5053972;28;20216;-55
2021/12/27 02:23:01;;;;;;;13.98;9.48;;;6.80;94.60;;;;;;5053923;28;20205;-58
2021/12/27 02:25:28;;;;;;;11.40;8.45;;;6.80;94.40;;;;;;5052255;28;20625;-57
2021/12/27 02:27:57;;;;;;;14.77;8.50;;;6.80;94.40;;;;;;5053581;28;20200;-57
2021/12/27 02:30:24;;;;;;;15.45;10.40;;;6.80;94.50;;;;;;5053499;28;20209;-59
2021/12/27 02:32:53;;;;;;;15.95;8.95;;;6.80;94.20;;;;;;5053785;28;20205;-59
2021/12/27 02:35:23;;;;;;;14.00;8.95;;;6.80;94.00;;;;;;5053699;28;20316;-58
2021/12/27 02:37:52;;;;;;;13.82;9.88;;;6.90;94.00;;;;;;5053481;28;20304;-57
2021/12/27 02:40:21;;;;;;;14.00;8.75;;;6.80;93.80;;;;;;5052185;28;20293;-54
2021/12/27 02:42:56;;;;;;;14.50;8.65;;;6.80;93.90;;;;;;5053450;28;20208;-56
2021/12/27 02:45:24;;;;;;;11.95;8.90;;;6.80;94.10;;;;;;5053390;28;20225;-56
2021/12/27 02:47:51;;;;;;;11.68;7.70;;;6.90;94.10;;;;;;5053470;28;20219;-60
2021/12/27 02:50:18;;;;;;;12.07;8.50;;;6.90;94.00;;;;;;5053373;28;20207;-59
2021/12/27 02:52:45;;;;;;;12.57;8.50;;;6.90;94.00;;;;;;5053169;28;20205;-59
2021/12/27 02:55:15;;;;;;;13.35;8.68;;;7.00;93.90;;;;;;5052132;28;20759;-60
2021/12/27 02:57:42;;;;;;;9.98;7.85;;;7.00;93.80;;;;;;5053105;28;20292;-60
2021/12/27 03:00:15;;;;;;;9.80;7.30;;;7.00;93.60;;;;;;5053356;28;20201;-60
2021/12/27 03:02:44;;;;;;;12.70;8.30;;;7.00;93.60;;;;;;5053194;28;20222;-59
2021/12/27 03:05:12;;;;;;;10.65;7.82;;;7.00;93.50;;;;;;5052946;28;20248;-58
2021/12/27 03:07:39;;;;;;;10.73;7.97;;;7.00;93.40;;;;;;5053056;28;20288;-60
2021/12/27 03:10:08;;;;;;;15.05;7.65;;;7.00;93.30;;;;;;5051747;28;20236;-59
2021/12/27 03:12:38;;;;;;;11.05;7.90;;;7.00;93.00;;;;;;5052993;28;20300;-60
2021/12/27 03:15:06;;;;;;;9.15;6.88;;;7.00;93.10;;;;;;5053088;28;20201;-59
2021/12/27 03:17:33;;;;;;;8.85;6.85;;;7.00;93.30;;;;;;5052996;28;20208;-60
2021/12/27 03:20:00;;;;;;;10.50;6.97;;;7.00;93.20;;;;;;5052963;28;20198;-60
2021/12/27 03:22:27;;;;;;;10.77;7.10;;;7.00;93.20;;;;;;5052920;28;20299;-58
2021/12/27 03:24:54;;;;;;;12.93;7.50;;;6.90;93.10;;;;;;5051800;28;20217;-59
2021/12/27 03:27:21;;;;;;;10.48;7.55;;;6.90;93.30;;;;;;5052620;28;20717;-59
2021/12/27 03:29:49;;;;;;;9.43;6.88;;;6.90;93.20;;;;;;5052820;28;20232;-58
2021/12/27 03:32:17;;;;;;;10.60;7.07;;;6.80;93.40;;;;;;5052596;28;20201;-60
2021/12/27 03:34:53;;;;;;;8.45;6.60;;;6.70;93.70;;;;;;5052806;28;20205;-59
2021/12/27 03:37:20;;;;;;;9.90;6.75;;;6.70;94.00;;;;;;5052739;28;20263;-58
2021/12/27 03:39:47;;;;;;;8.40;6.53;;;6.60;94.20;;;;;;5051306;28;20206;-58
2021/12/27 03:42:15;;;;;;;10.20;7.50;;;6.60;94.40;;;;;;5053011;28;20221;-58
2021/12/27 03:44:42;;;;;;;10.70;7.43;;;6.60;94.50;;;;;;5056816;28;20226;-59
2021/12/27 03:47:10;;;;;;;12.75;6.93;;;6.50;94.50;;;;;;5056678;28;20229;-58
2021/12/27 03:49:37;;;;;;;7.40;5.93;;;6.50;94.70;;;;;;5057004;28;20197;-61
2021/12/27 03:52:05;;;;;;;7.38;6.20;;;6.50;94.80;;;;;;5056660;28;20212;-59
2021/12/27 03:54:32;;;;;;;8.20;5.70;;;6.60;94.80;;;;;;5055535;28;20219;-58
2021/12/27 03:56:59;;;;;;;8.00;6.00;;;6.70;94.80;;;;;;5056499;28;20211;-60
2021/12/27 03:59:37;;;;;;;6.90;5.82;;;6.80;94.50;;;;;;5056487;28;20212;-60
2021/12/27 04:02:05;;;;;;;6.18;5.10;;;6.80;93.90;;;;;;5056476;28;20636;-58
2021/12/27 04:04:33;;;;;;;8.95;5.75;;;7.00;93.90;;;;;;5056454;28;20208;-56
2021/12/27 04:07:00;;;;;;;5.78;5.13;;;7.00;93.20;;;;;;5056381;28;20229;-58
2021/12/27 04:09:27;;;;;;;7.13;5.30;;;7.00;93.20;;;;;;5054793;28;20208;-61
2021/12/27 04:11:54;;;;;;;6.95;5.28;;;7.00;92.90;;;;;;5056150;28;20205;-58
2021/12/27 04:14:21;;;;;;;7.07;5.32;;;7.00;92.90;;;;;;5056365;28;20217;-62
2021/12/27 04:16:48;;;;;;;6.28;5.43;;;7.00;92.90;;;;;;5056314;28;20197;-60
2021/12/27 04:19:15;;;;;;;6.45;5.05;;;7.00;93.10;;;;;;5056232;28;20208;-59
2021/12/27 04:21:44;;;;;;;7.45;5.20;;;7.00;92.80;;;;;;5056166;28;20201;-61
2021/12/27 04:24:11;;;;;;;8.30;5.72;;;7.00;93.10;;;;;;5054897;28;20660;-62
2021/12/27 04:26:38;;;;;;;6.55;5.63;;;7.00;92.90;;;;;;5055760;28;20229;-58
2021/12/27 04:29:05;;;;;;;6.82;6.00;;;7.00;92.80;;;;;;5056016;28;20553;-59
2021/12/27 04:31:32;;;;;;;5.30;4.80;;;7.00;92.70;;;;;;5056051;28;20201;-62
2021/12/27 04:33:59;;;;;;;6.25;5.57;;;7.00;92.60;;;;;;5055912;28;20201;-60
2021/12/27 04:36:26;;;;;;;7.93;6.40;;;7.00;92.60;;;;;;5055984;28;20372;-62
2021/12/27 04:38:54;;;;;;;6.13;5.13;;;6.90;92.60;;;;;;5054462;28;20706;-55
2021/12/27 04:41:23;;;;;;;7.82;5.70;;;6.90;92.90;;;;;;5055634;28;20742;-59
2021/12/27 04:43:50;;;;;;;5.82;5.20;;;6.90;92.90;;;;;;5055734;28;20201;-59
2021/12/27 04:46:17;;;;;;;7.53;5.45;;;6.90;92.70;;;;;;5055589;28;20770;-61
2021/12/27 04:48:43;;;;;;;7.53;5.45;;;6.90;92.60;;;;;;5055634;28;20233;-60
2021/12/27 04:51:10;;;;;;;6.10;4.90;;;7.00;92.60;;;;;;5055700;28;20212;-62
2021/12/27 04:53:37;;;;;;;8.10;5.75;;;7.00;92.50;;;;;;5055594;28;20289;-61
2021/12/27 04:56:05;;;;;;;7.05;5.55;;;7.00;92.70;;;;;;5054250;28;20205;-61
2021/12/27 04:58:32;;;;;;;5.38;4.45;;;7.00;92.60;;;;;;5055369;28;20197;-59
2021/12/27 05:00:59;;;;;;;8.77;5.38;;;7.00;92.50;;;;;;5055600;28;20296;-59
2021/12/27 05:03:26;;;;;;;7.93;5.32;;;7.00;92.50;;;;;;5055410;28;20308;-60
2021/12/27 05:05:53;;;;;;;6.60;5.28;;;7.00;92.50;;;;;;5055321;28;20748;-60
2021/12/27 05:08:20;;;;;;;7.97;6.00;;;6.90;92.40;;;;;;5055152;28;20296;-63
2021/12/27 05:10:47;;;;;;;8.15;5.88;;;7.00;92.60;;;;;;5053792;28;20275;-62
2021/12/27 05:13:17;;;;;;;7.93;5.95;;;7.00;92.50;;;;;;5055022;28;20205;-64
2021/12/27 05:15:44;;;;;;;6.30;5.20;;;6.90;92.50;;;;;;5055260;28;20205;-62
2021/12/27 05:18:11;;;;;;;6.43;5.20;;;7.00;92.40;;;;;;5055177;28;20351;-60
2021/12/27 05:20:38;;;;;;;6.07;4.97;;;6.90;92.20;;;;;;5055012;28;20202;-60
2021/12/27 05:23:05;;;;;;;6.90;4.70;;;6.80;92.50;;;;;;5054938;28;20209;-56
2021/12/27 05:25:32;;;;;;;4.63;4.13;;;6.60;93.10;;;;;;5053705;28;20664;-58
2021/12/27 05:27:59;;;;;;;5.68;4.00;;;6.50;93.50;;;;;;5054852;28;20611;-62
2021/12/27 05:30:27;;;;;;;5.78;4.97;;;6.60;93.70;;;;;;5054997;28;20201;-57
2021/12/27 05:32:54;;;;;;;5.93;4.68;;;6.60;93.70;;;;;;5054750;28;20225;-58
2021/12/27 05:35:21;;;;;;;5.93;4.63;;;6.60;93.50;;;;;;5054765;28;20202;-57
2021/12/27 05:37:47;;;;;;;5.13;4.50;;;6.60;93.70;;;;;;5054621;28;20681;-62
2021/12/27 05:40:20;;;;;;;5.00;4.22;;;6.60;93.70;;;;;;5053409;28;20204;-61
2021/12/27 05:42:49;;;;;;;5.43;4.70;;;6.70;93.70;;;;;;5054594;28;20207;-59
2021/12/27 05:45:17;;;;;;;5.70;4.45;;;6.70;93.20;;;;;;5054571;28;20207;-60
2021/12/27 05:47:46;;;;;;;5.85;3.65;;;6.60;93.20;;;;;;5054512;28;20235;-59
2021/12/27 05:50:14;;;;;;;5.10;4.60;;;6.60;93.30;;;;;;5054565;28;20201;-62
2021/12/27 05:52:41;;;;;;;5.00;4.50;;;6.60;93.40;;;;;;5054568;28;20292;-62
2021/12/27 05:55:10;;;;;;;4.90;4.35;;;6.70;93.30;;;;;;5053036;28;20547;-62
2021/12/27 05:57:38;;;;;;;5.15;4.65;;;6.80;93.30;;;;;;5054400;28;20300;-61
2021/12/27 06:00:07;;;;;;;5.20;4.70;;;6.80;93.10;;;;;;5054395;28;20212;-58
2021/12/27 06:02:34;;;;;;;5.53;5.03;;;6.80;92.80;;;;;;5054120;28;20229;-61
2021/12/27 06:05:03;;;;;;;4.90;4.38;;;6.90;92.70;;;;;;5053794;28;20208;-63
2021/12/27 06:07:31;;;;;;;5.65;4.30;;;6.90;92.50;;;;;;5054003;28;20323;-60
2021/12/27 06:09:58;;;;;;;5.20;4.70;;;6.90;92.40;;;;;;5052709;28;20586;-62
2021/12/27 06:12:25;;;;;;;6.20;4.47;;;6.90;92.20;;;;;;5054026;28;20223;-62
2021/12/27 06:14:52;;;;;;;4.88;4.35;;;7.00;92.10;;;;;;5054076;28;20201;-61
2021/12/27 06:17:19;;;;;;;5.50;4.55;;;7.00;91.80;;;;;;5053890;28;20244;-64
2021/12/27 06:19:45;;;;;;;7.10;5.20;;;6.90;91.50;;;;;;5053979;28;20208;-62
2021/12/27 06:22:14;;;;;;;5.65;4.28;;;6.90;91.50;;;;;;5053929;28;20212;-61
2021/12/27 06:24:41;;;;;;;5.68;4.57;;;6.90;91.70;;;;;;5052799;28;20232;-61
2021/12/27 06:27:08;;;;;;;5.78;4.90;;;6.90;91.50;;;;;;5053693;28;20320;-62
2021/12/27 06:29:35;;;;;;;8.40;4.82;;;6.90;91.50;;;;;;5053610;28;20215;-58
2021/12/27 06:32:02;;;;;;;5.10;4.60;;;7.00;91.50;;;;;;5053734;28;20208;-63
2021/12/27 06:34:29;;;;;;;5.63;4.70;;;7.00;91.30;;;;;;5053709;28;20197;-64
2021/12/27 06:36:56;;;;;;;6.47;5.00;;;7.00;91.30;;;;;;5053609;28;20694;-61
2021/12/27 06:39:24;;;;;;;8.13;5.20;;;6.90;91.00;;;;;;5052375;28;20660;-63
2021/12/27 06:41:51;;;;;;;5.85;4.93;;;6.90;91.10;;;;;;5053372;28;20206;-64
2021/12/27 06:44:17;;;;;;;5.97;4.93;;;6.80;91.00;;;;;;5053275;28;20201;-62
2021/12/27 06:46:44;;;;;;;7.30;4.45;;;6.70;91.30;;;;;;5053486;28;20217;-60
2021/12/27 06:49:11;;;;;;;6.70;5.43;;;6.70;91.50;;;;;;5053404;28;20683;-63
2021/12/27 06:51:38;;;;;;;7.35;5.82;;;6.70;91.80;;;;;;5053390;28;20669;-63
2021/12/27 06:54:05;;;;;;;6.50;5.30;;;6.70;91.70;;;;;;5051978;28;20296;-59
2021/12/27 06:56:33;;;;;;;7.70;5.65;;;6.70;91.60;;;;;;5053245;28;20202;-61
2021/12/27 06:59:02;;;;;;;6.20;4.95;;;6.70;91.50;;;;;;5053235;28;20206;-63
2021/12/27 07:01:29;;;;;;;6.28;5.30;;;6.70;91.40;;;;;;5053077;28;20713;-59
2021/12/27 07:03:56;;;;;;;7.40;5.75;;;6.70;91.40;;;;;;5053199;28;20216;-60
2021/12/27 07:06:23;;;;;;;8.63;6.20;;;6.70;91.30;;;;;;5053047;28;20288;-59
2021/12/27 07:08:49;;;;;;;8.60;5.97;;;6.70;91.30;;;;;;5051829;28;20205;-61
2021/12/27 07:11:16;;;;;;;8.85;5.82;;;6.60;91.50;;;;;;5052876;28;20267;-60
2021/12/27 07:13:44;;;;;;;10.13;6.70;;;6.60;91.70;;;;;;5052943;28;20215;-62
2021/12/27 07:16:11;;;;;;;9.27;6.57;;;6.70;91.70;;;;;;5052899;28;20201;-61
2021/12/27 07:18:38;;;;;;;9.80;6.78;;;6.70;91.50;;;;;;5052100;28;20685;-62
2021/12/27 07:21:05;;;;;;;10.20;6.55;;;6.70;91.30;;;;;;5052917;28;20207;-61
2021/12/27 07:23:32;;;;;;;7.97;5.63;;;6.70;91.30;;;;;;5052935;28;20205;-61
2021/12/27 07:25:59;;;;;;;6.70;5.60;;;6.70;91.30;;;;;;5051490;28;20210;-62
2021/12/27 07:28:26;;;;;;;8.35;6.72;;;6.60;91.20;;;;;;5052646;28;20236;-61
2021/12/27 07:30:54;;;;;;;8.00;6.25;;;6.60;91.40;;;;;;5052826;28;20296;-60
2021/12/27 07:33:21;;;;;;;9.93;6.72;;;6.60;91.50;;;;;;5052819;28;20206;-61
2021/12/27 07:35:48;;;;;;;7.38;6.28;;;6.60;91.30;;;;;;5052878;28;20301;-61
2021/12/27 07:38:15;;;;;;;7.13;5.95;;;6.60;91.40;;;;;;5052627;28;20217;-61
2021/12/27 07:40:42;;;;;;;8.38;6.05;;;6.60;91.40;;;;;;5051314;28;20206;-60
2021/12/27 07:43:09;;;;;;;9.65;6.50;;;6.60;91.60;;;;;;5052539;28;20241;-61
2021/12/27 07:45:36;;;;;;;10.75;7.05;;;6.60;91.60;;;;;;5052773;28;20216;-61
2021/12/27 07:48:07;;;;;;;9.65;6.78;;;6.60;91.70;;;;;;5052627;28;20233;-60
2021/12/27 07:50:34;;;;;;;12.05;7.20;;;6.70;91.70;;;;;;5052699;28;20205;-60
2021/12/27 07:53:01;;;;;;;9.32;6.07;;;6.70;91.60;;;;;;5052491;28;20208;-58
2021/12/27 07:55:29;;;;;;;8.75;6.38;;;6.70;91.50;;;;;;5051165;28;20212;-60
2021/12/27 07:57:56;;;;;;;7.18;6.03;;;6.70;91.50;;;;;;5052453;28;20205;-61
2021/12/27 08:00:24;;;;;;;7.35;5.95;;;6.70;91.30;;;;;;5052464;28;20288;-61
2021/12/27 08:02:51;;;;;;;7.68;5.30;;;6.70;91.50;;;;;;5052527;28;20212;-59
2021/12/27 08:05:19;;;;;;;8.35;5.55;;;6.80;91.70;;;;;;5052417;28;20209;-57
2021/12/27 08:07:46;;;;;;;6.90;5.63;;;6.80;91.30;;;;;;5052318;28;20233;-61
2021/12/27 08:10:15;;;;;;;7.47;5.70;;;6.80;91.30;;;;;;5051091;28;20596;-58
2021/12/27 08:12:43;;;;;;;10.25;7.00;;;6.80;90.90;;;;;;5052248;28;20208;-59
2021/12/27 08:15:12;;;;;;;7.32;5.80;;;6.80;91.10;;;;;;5052380;28;20285;-59
2021/12/27 08:17:40;;;;;;;11.43;6.15;;;6.80;91.30;;;;;;5052451;28;20210;-58
2021/12/27 08:20:08;;;;;;;7.05;5.55;;;6.80;91.50;;;;;;5052283;28;20201;-60
2021/12/27 08:22:36;;;;;;;7.43;6.10;;;6.70;91.40;;;;;;5052275;28;20201;-60
2021/12/27 08:25:07;;;;;;;12.05;7.57;;;6.70;91.50;;;;;;5050987;28;20209;-59
2021/12/27 08:27:34;;;;;;;10.38;7.20;;;6.70;91.60;;;;;;5051935;28;20766;-58
2021/12/27 08:30:04;;;;;;;9.65;6.75;;;6.80;91.50;;;;;;5055289;28;20212;-58
2021/12/27 08:32:31;;;;;;;8.93;7.00;;;6.80;91.50;;;;;;5055954;28;20266;-56
2021/12/27 08:35:01;;;;;;;10.43;7.13;;;6.80;91.30;;;;;;5055821;28;20232;-59
2021/12/27 08:37:28;;;;;;;8.88;6.20;;;6.80;91.40;;;;;;5055889;28;20296;-59
2021/12/27 08:39:56;;;;;;;8.68;6.60;;;6.80;91.50;;;;;;5054597;28;20206;-59
2021/12/27 08:42:23;;;;;;;9.38;6.63;;;6.80;91.80;;;;;;5055722;28;20209;-57
2021/12/27 08:44:50;;;;;;;8.25;6.60;;;6.80;92.00;;;;;;5055779;28;20209;-58
2021/12/27 08:47:17;;;;;;;11.52;5.88;;;6.70;92.30;;;;;;5055516;28;20705;-58
2021/12/27 08:49:44;;;;;;;9.55;6.63;;;6.70;92.50;;;;;;5055628;28;20746;-60
2021/12/27 08:52:11;;;;;;;7.55;5.45;;;6.80;92.60;;;;;;5055711;28;20210;-58
2021/12/27 08:54:39;;;;;;;6.18;5.25;;;6.80;92.60;;;;;;5054385;28;20213;-57
2021/12/27 08:57:09;;;;;;;9.88;5.75;;;6.90;92.50;;;;;;5055506;28;20211;-60
2021/12/27 08:59:37;;;;;;;7.95;5.97;;;6.80;92.30;;;;;;5055433;28;20240;-61
2021/12/27 09:02:05;;;;;;;7.88;5.63;;;6.90;92.50;;;;;;5055367;28;20225;-59
2021/12/27 09:04:32;;;;;;;9.07;5.55;;;6.90;92.30;;;;;;5055436;28;20545;-57
2021/12/27 09:06:59;;;;;;;6.68;5.43;;;6.90;92.10;;;;;;5055450;28;20208;-59
2021/12/27 09:09:26;;;;;;;7.85;6.32;;;6.90;91.90;;;;;;5053779;28;20722;-60
2021/12/27 09:11:53;;;;;;;8.25;5.82;;;6.90;92.50;;;;;;5055216;28;20212;-60
2021/12/27 09:14:21;;;;;;;8.63;5.20;;;6.90;92.30;;;;;;5054939;28;20211;-58
2021/12/27 09:16:48;;;;;;;8.23;5.75;;;6.90;92.10;;;;;;5055125;28;20205;-60
2021/12/27 09:19:15;;;;;;;7.55;5.78;;;6.90;92.20;;;;;;5055150;28;20247;-60
2021/12/27 09:21:43;;;;;;;8.27;5.72;;;6.90;92.30;;;;;;5055121;28;20208;-58
2021/12/27 09:24:09;;;;;;;9.45;5.55;;;7.00;92.20;;;;;;5053674;28;20205;-60
2021/12/27 09:26:39;;;;;;;7.65;6.30;;;7.10;92.20;;;;;;5054986;28;20201;-60
2021/12/27 09:29:06;;;;;;;8.25;6.10;;;7.20;92.20;;;;;;5054590;28;20287;-56
2021/12/27 09:31:35;;;;;;;6.47;5.80;;;7.30;92.00;;;;;;5054907;28;20209;-58
2021/12/27 09:34:02;;;;;;;6.75;5.00;;;7.30;91.60;;;;;;5054789;28;20679;-62
2021/12/27 09:36:29;;;;;;;6.97;4.93;;;7.30;91.60;;;;;;5047477;28;20205;-52
2021/12/27 09:38:56;;;;;;;7.03;5.20;;;7.30;91.40;;;;;;5038492;28;20217;-59
2021/12/27 09:41:24;;;;;;;7.68;5.85;;;7.40;91.40;;;;;;5033148;28;20205;-58
2021/12/27 09:43:51;;;;;;;7.82;5.60;;;7.50;91.30;;;;;;5033798;28;20208;-60
2021/12/27 09:46:18;;;;;;;8.05;5.28;;;7.60;90.80;;;;;;5033874;28;20212;-58
2021/12/27 09:48:47;;;;;;;6.53;5.55;;;7.60;90.80;;;;;;5033891;28;20230;-55
2021/12/27 09:51:14;;;;;;;6.82;5.60;;;7.70;90.60;;;;;;5033925;28;20547;-58
2021/12/27 09:53:40;;;;;;;6.93;5.35;;;7.70;90.60;;;;;;5033982;28;20198;-57
2021/12/27 09:56:09;;;;;;;7.72;4.88;;;7.70;90.60;;;;;;5032559;28;20205;-55
2021/12/27 09:58:36;;;;;;;6.13;4.50;;;7.70;90.40;;;;;;5033521;28;20212;-59
2021/12/27 10:01:05;;;;;;;5.78;4.47;;;7.50;90.20;;;;;;5033611;28;20228;-59
2021/12/27 10:03:43;;;;;;;6.88;5.32;;;7.50;90.80;;;;;;5033441;28;20314;-55
2021/12/27 10:06:13;;;;;;;5.65;5.05;;;7.60;90.90;;;;;;5033996;28;20227;-58
2021/12/27 10:08:43;;;;;;;5.78;4.50;;;7.80;90.80;;;;;;5041632;28;20237;-57
2021/12/27 10:11:16;;;;;;;6.25;4.80;;;7.80;90.10;;;;;;5052689;28;20233;-59
2021/12/27 10:13:58;;;;;;;5.90;4.10;;;7.80;90.00;;;;;;5053979;28;20203;-54
2021/12/27 10:16:25;;;;;;;6.53;4.80;;;7.90;89.80;;;;;;5054062;28;20212;-59
2021/12/27 10:18:55;;;;;;;5.72;4.60;;;7.90;89.30;;;;;;5053939;28;20205;-54
2021/12/27 10:21:24;;;;;;;6.22;5.00;;;7.90;89.80;;;;;;5053767;28;20568;-55
2021/12/27 10:24:01;;;;;;;4.55;4.15;;;7.90;89.80;;;;;;5052754;28;20656;-54
2021/12/27 10:26:31;;;;;;;7.25;4.85;;;7.80;89.50;;;;;;5053927;28;20227;-58
2021/12/27 10:29:16;;;;;;;5.22;4.72;;;7.80;90.20;;;;;;5053567;28;20323;-58
2021/12/27 10:32:00;;;;;;;5.72;4.47;;;7.90;90.20;;;;;;5053186;28;20304;-58
2021/12/27 10:34:29;;;;;;;5.97;4.32;;;8.10;89.80;;;;;;5052660;28;20209;-58
2021/12/27 10:37:06;;;;;;;6.57;5.25;;;8.20;89.10;;;;;;5053655;28;20711;-60
2021/12/27 10:39:45;;;;;;;6.68;5.50;;;8.30;89.20;;;;;;5052169;28;20208;-60
2021/12/27 10:42:14;;;;;;;4.88;4.35;;;8.40;88.60;;;;;;5053391;28;20207;-59
2021/12/27 10:44:41;;;;;;;7.05;5.40;;;8.50;87.90;;;;;;5053553;28;20204;-54
2021/12/27 10:47:25;;;;;;;6.05;5.45;;;8.60;88.30;;;;;;5053473;28;20237;-56
2021/12/27 10:49:53;;;;;;;8.32;5.38;;;8.70;87.70;;;;;;5053430;28;20312;-58
2021/12/27 10:52:39;;;;;;;5.60;4.70;;;8.80;87.40;;;;;;5053117;28;20212;-52
2021/12/27 10:55:06;;;;;;;5.68;4.65;;;8.90;87.50;;;;;;5052097;28;20560;-54
2021/12/27 10:57:33;;;;;;;5.13;4.60;;;9.00;86.80;;;;;;5053051;28;20259;-58
2021/12/27 11:00:19;;;;;;;6.05;4.95;;;9.00;86.50;;;;;;5053241;28;20204;-58
2021/12/27 11:02:46;;;;;;;6.20;4.95;;;9.10;85.80;;;;;;5053122;28;20211;-58
2021/12/27 11:05:14;;;;;;;6.05;4.75;;;9.30;86.10;;;;;;5053024;28;20220;-57
2021/12/27 11:07:43;;;;;;;5.15;4.65;;;9.40;85.60;;;;;;5053073;28;20202;-58
2021/12/27 11:10:10;;;;;;;5.20;4.70;;;9.60;85.00;;;;;;5051646;28;20232;-54
2021/12/27 11:12:37;;;;;;;5.03;4.53;;;9.90;85.10;;;;;;5052968;28;20208;-60
2021/12/27 11:15:09;;;;;;;5.65;5.15;;;11.00;83.50;;;;;;5052931;28;20201;-58
2021/12/27 11:17:36;;;;;;;5.68;5.25;;;12.50;79.00;;;;;;5052822;28;20255;-59
2021/12/27 11:20:05;;;;;;;7.30;6.80;;;13.70;72.80;;;;;;5052957;28;20209;-58
2021/12/27 11:22:31;;;;;;;8.00;7.40;;;14.40;69.40;;;;;;5052892;28;20205;-56
2021/12/27 11:25:05;;;;;;;8.70;8.10;;;14.90;69.60;;;;;;5051607;28;20207;-56
2021/12/27 11:27:34;;;;;;;8.18;7.68;;;15.20;71.00;;;;;;5052713;28;20201;-58
2021/12/27 11:30:12;;;;;;;9.45;8.85;;;15.00;67.00;;;;;;5052617;28;20229;-58
2021/12/27 11:33:04;;;;;;;9.50;8.90;;;14.30;70.80;;;;;;5052653;28;20205;-59
2021/12/27 11:35:33;;;;;;;7.97;7.43;;;13.80;72.00;;;;;;5052571;28;20207;-59
2021/12/27 11:38:01;;;;;;;8.60;8.00;;;13.30;72.70;;;;;;5052778;28;20202;-60
2021/12/27 11:40:44;;;;;;;8.65;8.05;;;12.90;73.30;;;;;;5051361;28;20630;-57
2021/12/27 11:43:11;;;;;;;8.90;8.30;;;12.60;73.90;;;;;;5052731;28;20201;-60
2021/12/27 11:45:41;;;;;;;8.77;7.97;;;12.30;74.70;;;;;;5052763;28;20197;-60
2021/12/27 11:48:09;;;;;;;7.95;7.45;;;12.10;75.50;;;;;;5052660;28;20307;-61
2021/12/27 11:51:09;;;;;;;8.35;7.75;;;11.70;75.80;;;;;;5052597;28;20205;-60
2021/12/27 11:53:43;;;;;;;7.45;7.05;;;11.70;76.90;;;;;;5052629;28;20296;-59
2021/12/27 11:56:15;;;;;;;8.43;7.72;;;11.80;76.60;;;;;;5051307;28;20686;-57
2021/12/27 11:58:44;;;;;;;7.88;7.18;;;11.80;76.70;;;;;;5052397;28;20670;-61
2021/12/27 12:01:36;;;;;;;8.20;7.60;;;11.80;76.60;;;;;;5052512;28;20228;-60
2021/12/27 12:04:03;;;;;;;7.93;7.32;;;11.60;76.60;;;;;;5054024;28;20227;-58
2021/12/27 12:06:37;;;;;;;7.55;6.95;;;11.50;77.60;;;;;;5056574;28;20672;-58
2021/12/27 12:09:11;;;;;;;7.28;6.60;;;11.50;77.50;;;;;;5055006;28;20240;-60
2021/12/27 12:11:40;;;;;;;7.00;6.40;;;11.40;77.50;;;;;;5056261;28;20241;-57
2021/12/27 12:14:29;;;;;;;6.68;6.28;;;11.30;77.60;;;;;;5056135;28;20212;-61
2021/12/27 12:16:57;;;;;;;6.65;6.15;;;11.30;78.10;;;;;;5053405;28;20201;-60
2021/12/27 12:19:43;;;;;;;7.15;6.57;;;11.10;77.90;;;;;;5056280;28;20197;-61
2021/12/27 12:22:33;;;;;;;6.80;6.20;;;11.00;79.00;;;;;;5056060;28;20208;-56
2021/12/27 12:25:22;;;;;;;6.97;6.38;;;11.00;79.00;;;;;;5054997;28;20212;-60
2021/12/27 12:27:58;;;;;;;7.57;6.90;;;10.90;79.10;;;;;;5052961;28;20209;-60
2021/12/27 12:30:28;;;;;;;7.22;6.57;;;10.90;78.70;;;;;;5055853;28;20243;-59
2021/12/27 12:33:00;;;;;;;7.80;7.03;;;10.70;78.50;;;;;;5056148;28;20202;-57
2021/12/27 12:35:39;;;;;;;6.95;6.35;;;10.50;79.60;;;;;;5055981;28;20206;-59
2021/12/27 12:38:12;;;;;;;8.50;7.70;;;10.40;80.10;;;;;;5055817;28;20557;-57
2021/12/27 12:40:39;;;;;;;7.55;6.85;;;10.30;81.20;;;;;;5054625;28;20208;-58
2021/12/27 12:43:07;;;;;;;8.50;7.80;;;10.30;81.50;;;;;;5055624;28;20201;-57
2021/12/27 12:45:36;;;;;;;7.97;7.15;;;10.30;81.30;;;;;;5055614;28;20202;-58
2021/12/27 12:48:04;;;;;;;8.93;7.80;;;10.20;82.20;;;;;;5055682;28;20292;-57
2021/12/27 12:50:31;;;;;;;8.27;7.47;;;10.10;82.40;;;;;;5055540;28;20328;-55
2021/12/27 12:53:00;;;;;;;7.20;6.50;;;10.10;82.70;;;;;;5055585;28;20676;-58
2021/12/27 12:55:29;;;;;;;7.60;6.88;;;10.10;82.40;;;;;;5054232;28;20201;-54
2021/12/27 12:57:56;;;;;;;6.97;6.35;;;10.20;81.80;;;;;;5055380;28;20224;-58
2021/12/27 13:00:27;;;;;;;7.25;6.65;;;10.00;81.70;;;;;;5055513;28;20206;-59
2021/12/27 13:02:54;;;;;;;7.93;7.22;;;10.00;81.80;;;;;;5055329;28;20212;-60
2021/12/27 13:05:21;;;;;;;6.95;6.35;;;10.00;81.70;;;;;;5055404;28;20564;-56